Time;durP1;ratioP1;P1;durP2;ratioP2;P2;SDS_P1;SDS_P2;PMS_P1;PMS_P2;Temp;Humidity;BMP_temperature;BMP_pressure;BME280_temperature;BME280_humidity;BME280_pressure;Samples;Min_cycle;Max_cycle;Signal;HPM_P1;HPM_P2
2023/04/19 00:01:29;;;;;;;22.10;18.35;;;;;;;11.00;82.93;101777.13;6284530;22;20058;-79
2023/04/19 00:03:57;;;;;;;22.55;18.92;;;;;;;11.00;83.04;101767.50;6284280;22;20368;-80
2023/04/19 00:06:25;;;;;;;23.50;19.08;;;;;;;10.97;82.89;101763.34;6283383;22;20024;-79
2023/04/19 00:08:51;;;;;;;21.35;18.42;;;;;;;10.92;82.82;101778.63;6283209;22;20050;-79
2023/04/19 00:11:18;;;;;;;21.67;17.65;;;;;;;10.93;83.01;101772.41;6283498;22;20050;-79
2023/04/19 00:13:44;;;;;;;21.05;18.08;;;;;;;10.97;82.88;101771.19;6282339;22;20031;-77
2023/04/19 00:16:11;;;;;;;23.92;20.00;;;;;;;10.92;82.97;101757.66;6280659;22;20063;-77
2023/04/19 00:18:38;;;;;;;20.75;18.13;;;;;;;10.86;83.28;101771.31;6282407;22;20055;-77
2023/04/19 00:21:06;;;;;;;22.67;19.38;;;;;;;10.87;83.26;101772.94;6280333;22;20051;-78
2023/04/19 00:23:33;;;;;;;22.35;18.77;;;;;;;10.86;83.12;101766.06;6280979;22;20058;-78
2023/04/19 00:26:02;;;;;;;24.10;19.35;;;;;;;10.89;83.53;101772.81;6280331;22;20024;-77
2023/04/19 00:28:29;;;;;;;26.33;19.90;;;;;;;10.81;83.60;101770.88;6281882;22;20058;-80
2023/04/19 00:30:56;;;;;;;22.38;19.27;;;;;;;10.79;83.33;101770.16;6281231;22;20081;-77
2023/04/19 00:33:22;;;;;;;22.40;18.25;;;;;;;10.80;83.84;101771.81;6283069;22;20400;-78
2023/04/19 00:35:49;;;;;;;24.50;19.17;;;;;;;10.79;83.96;101761.47;6285532;22;20031;-79
2023/04/19 00:38:17;;;;;;;22.05;18.65;;;;;;;10.74;83.76;101759.25;6286188;22;20055;-79
2023/04/19 00:40:45;;;;;;;22.15;18.35;;;;;;;10.78;83.93;101767.69;6286917;22;20082;-78
2023/04/19 00:43:12;;;;;;;24.38;19.50;;;;;;;10.77;84.09;101764.22;6285755;22;20019;-80
2023/04/19 00:45:38;;;;;;;26.48;19.05;;;;;;;10.74;83.94;101756.63;6285407;22;20356;-78
2023/04/19 00:48:05;;;;;;;22.33;18.75;;;;;;;10.80;84.31;101760.53;6284778;22;20050;-80
2023/04/19 00:50:32;;;;;;;22.40;18.98;;;;;;;10.76;84.37;101757.34;6283865;22;20027;-79
2023/04/19 00:52:59;;;;;;;22.85;18.63;;;;;;;10.74;84.56;101761.88;6285057;22;20020;-80
2023/04/19 00:55:27;;;;;;;21.33;17.95;;;;;;;10.73;84.45;101756.75;6285252;22;20030;-79
2023/04/19 00:57:53;;;;;;;22.98;18.42;;;;;;;10.70;84.47;101755.22;6285282;22;20034;-81
2023/04/19 01:00:20;;;;;;;23.05;17.70;;;;;;;10.74;84.66;101751.41;6284598;22;20023;-81
2023/04/19 01:02:47;;;;;;;26.00;18.52;;;;;;;10.69;84.62;101753.56;6284224;22;20301;-80
2023/04/19 01:05:14;;;;;;;25.13;18.02;;;;;;;10.70;85.02;101749.16;6284483;22;20024;-80
2023/04/19 01:07:41;;;;;;;22.55;18.52;;;;;;;10.72;84.98;101745.47;6284074;22;20024;-79
2023/04/19 01:10:08;;;;;;;22.85;17.70;;;;;;;10.70;85.20;101739.53;6285334;22;20371;-80
2023/04/19 01:12:36;;;;;;;22.83;18.40;;;;;;;10.65;84.86;101744.31;6285862;22;20019;-80
2023/04/19 01:15:03;;;;;;;23.40;18.80;;;;;;;10.65;85.07;101760.03;6286826;22;20051;-81
2023/04/19 01:17:32;;;;;;;22.75;18.42;;;;;;;10.60;85.26;101743.88;6287696;22;20019;-80
2023/04/19 01:20:00;;;;;;;24.35;17.95;;;;;;;10.58;85.24;101740.53;6286953;22;20029;-80
2023/04/19 01:22:30;;;;;;;24.50;17.67;;;;;;;10.57;85.08;101744.13;6287889;22;20501;-79
2023/04/19 01:24:57;;;;;;;25.77;18.08;;;;;;;10.55;85.46;101741.63;6287422;22;20027;-79
2023/04/19 01:27:24;;;;;;;22.23;18.45;;;;;;;10.58;85.18;101745.78;6289870;22;20034;-80
2023/04/19 01:29:51;;;;;;;21.15;17.65;;;;;;;10.55;85.63;101749.47;6289665;22;20031;-79
2023/04/19 01:32:17;;;;;;;24.65;17.23;;;;;;;10.56;85.49;101737.22;6288905;22;20050;-79
2023/04/19 01:34:44;;;;;;;25.77;18.10;;;;;;;10.56;85.90;101743.28;6288814;22;20085;-80
2023/04/19 01:37:11;;;;;;;23.75;18.00;;;;;;;10.55;86.00;101739.00;6287050;22;20073;-80
2023/04/19 01:39:39;;;;;;;24.02;18.30;;;;;;;10.55;85.86;101740.81;6287024;22;20043;-79
2023/04/19 01:42:05;;;;;;;22.00;18.60;;;;;;;10.56;85.94;101738.06;6286642;22;20054;-79
2023/04/19 01:44:32;;;;;;;26.80;19.02;;;;;;;10.49;86.33;101730.84;6285101;22;20030;-79
2023/04/19 01:46:59;;;;;;;25.02;18.70;;;;;;;10.45;86.56;101730.28;6286341;22;20023;-80
2023/04/19 01:49:25;;;;;;;25.23;19.63;;;;;;;10.40;86.74;101729.81;6288104;22;20051;-80
2023/04/19 01:51:52;;;;;;;23.90;19.75;;;;;;;10.34;87.01;101727.75;6285314;22;20016;-78
2023/04/19 01:54:19;;;;;;;26.52;20.38;;;;;;;10.30;87.02;101727.16;6291703;22;20024;-78
2023/04/19 01:56:47;;;;;;;25.13;19.58;;;;;;;10.28;87.49;101723.84;6288202;22;20024;-78
2023/04/19 01:59:13;;;;;;;27.58;21.35;;;;;;;10.27;87.42;101722.19;6283693;22;20023;-78
2023/04/19 02:01:40;;;;;;;27.15;20.45;;;;;;;10.30;87.70;101715.88;6283946;22;20047;-80
2023/04/19 02:04:07;;;;;;;25.65;20.88;;;;;;;10.28;87.62;101723.84;6284136;22;20051;-79
2023/04/19 02:06:34;;;;;;;30.30;22.25;;;;;;;10.29;87.65;101715.03;6284037;22;20020;-80
2023/04/19 02:09:00;;;;;;;28.92;22.27;;;;;;;10.24;87.64;101716.38;6287132;22;20043;-82
2023/04/19 02:11:27;;;;;;;27.70;22.33;;;;;;;10.21;87.69;101722.69;6286551;22;20028;-81
2023/04/19 02:13:55;;;;;;;30.20;22.75;;;;;;;10.20;87.97;101710.56;6287142;22;20059;-81
2023/04/19 02:16:22;;;;;;;28.40;22.48;;;;;;;10.15;87.77;101701.41;6289202;22;20039;-79
2023/04/19 02:18:48;;;;;;;28.35;21.55;;;;;;;10.13;88.28;101704.16;6289216;22;20024;-81
2023/04/19 02:21:15;;;;;;;28.48;22.05;;;;;;;10.09;88.45;101707.97;6285082;22;20057;-80
2023/04/19 02:23:41;;;;;;;27.75;21.85;;;;;;;10.09;88.41;101709.75;6284303;22;20051;-79
2023/04/19 02:26:08;;;;;;;28.77;22.67;;;;;;;10.14;88.40;101711.03;6284567;22;20456;-80
2023/04/19 02:28:35;;;;;;;33.00;23.20;;;;;;;10.14;88.40;101712.81;6283470;22;20098;-77
2023/04/19 02:31:06;;;;;;;27.10;22.25;;;;;;;10.17;88.75;101716.03;6282490;22;20055;-78
2023/04/19 02:33:32;;;;;;;27.95;22.27;;;;;;;10.13;88.82;101719.84;6284783;22;20081;-78
2023/04/19 02:35:59;;;;;;;28.77;22.55;;;;;;;10.11;88.61;101721.75;6283487;22;20463;-78
2023/04/19 02:38:25;;;;;;;29.10;21.83;;;;;;;10.13;89.00;101719.84;6282148;22;20058;-79
2023/04/19 02:40:52;;;;;;;29.83;21.58;;;;;;;10.17;88.88;101721.25;6283101;22;20095;-79
2023/04/19 02:43:19;;;;;;;29.75;22.98;;;;;;;10.20;88.81;101717.59;6282527;22;20375;-78
2023/04/19 02:45:45;;;;;;;30.23;21.45;;;;;;;10.17;88.78;101718.63;6283228;22;20031;-77
2023/04/19 02:48:13;;;;;;;28.42;22.00;;;;;;;10.17;88.81;101708.19;6282866;22;20047;-78
2023/04/19 02:50:40;;;;;;;26.90;20.85;;;;;;;10.23;89.00;101726.00;6282566;22;20094;-80
2023/04/19 02:53:06;;;;;;;27.25;21.75;;;;;;;10.28;88.66;101717.78;6280897;22;20095;-77
2023/04/19 02:55:33;;;;;;;28.85;20.75;;;;;;;10.32;88.78;101716.56;6281842;22;20043;-78
2023/04/19 02:57:59;;;;;;;29.88;21.00;;;;;;;10.35;88.48;101718.94;6281797;22;20024;-79
2023/04/19 03:00:26;;;;;;;29.33;21.33;;;;;;;10.35;88.54;101715.50;6281111;22;20499;-79
2023/04/19 03:02:54;;;;;;;29.05;21.42;;;;;;;10.30;88.77;101721.94;6283213;22;20026;-79
2023/04/19 03:05:23;;;;;;;27.58;21.35;;;;;;;10.32;89.02;101716.56;6282462;22;20027;-79
2023/04/19 03:07:49;;;;;;;28.77;20.55;;;;;;;10.34;88.92;101719.91;6282675;22;20023;-79
2023/04/19 03:10:16;;;;;;;27.70;21.27;;;;;;;10.33;89.04;101715.63;6281839;22;20046;-79
2023/04/19 03:12:43;;;;;;;25.45;20.33;;;;;;;10.33;89.44;101720.03;6281075;22;20026;-79
2023/04/19 03:15:10;;;;;;;24.67;20.05;;;;;;;10.33;89.34;101712.19;6281726;22;20130;-79
2023/04/19 03:17:37;;;;;;;23.50;19.30;;;;;;;10.32;89.86;101716.56;6282271;22;20305;-79
2023/04/19 03:20:08;;;;;;;24.05;18.90;;;;;;;10.30;89.83;101711.47;6281730;22;20023;-79
2023/04/19 03:22:36;;;;;;;24.92;19.27;;;;;;;10.36;89.93;101706.69;6283789;22;20020;-79
2023/04/19 03:25:03;;;;;;;24.98;18.90;;;;;;;10.35;90.09;101707.66;6282987;22;20020;-79
2023/04/19 03:27:30;;;;;;;24.20;18.92;;;;;;;10.33;90.25;101699.09;6281333;22;20023;-80
2023/04/19 03:29:57;;;;;;;25.00;19.23;;;;;;;10.34;90.64;101698.97;6281056;22;20367;-79
2023/04/19 03:32:23;;;;;;;23.48;17.95;;;;;;;10.31;90.60;101694.00;6281059;22;20016;-80
2023/04/19 03:34:50;;;;;;;25.27;19.02;;;;;;;10.28;90.98;101697.69;6282199;22;20024;-79
2023/04/19 03:37:16;;;;;;;22.63;19.15;;;;;;;10.28;91.29;101691.63;6283290;22;20392;-80
2023/04/19 03:39:44;;;;;;;25.85;19.38;;;;;;;10.31;91.21;101691.38;6283114;22;20054;-80
2023/04/19 03:42:11;;;;;;;22.67;18.52;;;;;;;10.30;91.23;101698.41;6286991;22;20023;-79
2023/04/19 03:44:37;;;;;;;25.13;19.27;;;;;;;10.32;91.29;101692.19;6286811;22;20065;-80
2023/04/19 03:47:04;;;;;;;26.70;19.40;;;;;;;10.30;91.74;101701.00;6283189;22;20027;-78
2023/04/19 03:49:31;;;;;;;25.42;19.70;;;;;;;10.31;91.56;101699.22;6280852;22;20024;-78
2023/04/19 03:51:57;;;;;;;24.02;18.67;;;;;;;10.31;91.91;101696.59;6281509;22;20054;-80
2023/04/19 03:54:24;;;;;;;23.77;19.27;;;;;;;10.33;92.02;101693.84;6280801;22;20114;-79
2023/04/19 03:56:52;;;;;;;22.55;18.08;;;;;;;10.33;92.12;101705.16;6281374;22;20097;-80
2023/04/19 03:59:19;;;;;;;24.60;19.58;;;;;;;10.34;91.84;101700.75;6282622;22;20047;-78
2023/04/19 04:01:46;;;;;;;24.48;19.08;;;;;;;10.33;92.15;101699.09;6281699;22;20404;-79
2023/04/19 04:04:12;;;;;;;24.50;18.80;;;;;;;10.36;91.86;101701.47;6282784;22;20055;-78
2023/04/19 04:06:39;;;;;;;22.45;18.30;;;;;;;10.38;92.03;101697.75;6282955;22;20024;-78
2023/04/19 04:09:06;;;;;;;24.95;19.17;;;;;;;10.39;91.80;101698.59;6282143;22;20051;-79
2023/04/19 04:11:33;;;;;;;21.75;17.98;;;;;;;10.34;91.76;101709.44;6281169;22;20098;-79
2023/04/19 04:14:01;;;;;;;24.42;18.85;;;;;;;10.33;92.10;101712.19;6281929;22;20094;-79
2023/04/19 04:16:27;;;;;;;23.80;18.35;;;;;;;10.38;91.96;101708.22;6281514;22;20039;-78
2023/04/19 04:18:54;;;;;;;21.65;18.88;;;;;;;10.36;91.52;101709.31;6282206;22;20054;-80
2023/04/19 04:21:23;;;;;;;23.05;18.20;;;;;;;10.39;91.52;101709.06;6282456;22;20093;-80
2023/04/19 04:23:49;;;;;;;26.20;18.70;;;;;;;10.37;91.96;101703.13;6282011;22;20038;-79
2023/04/19 04:26:16;;;;;;;25.48;18.48;;;;;;;10.34;91.42;101700.75;6280877;22;20098;-79
2023/04/19 04:28:43;;;;;;;22.67;17.73;;;;;;;10.36;92.00;101704.06;6281569;22;20019;-79
2023/04/19 04:31:11;;;;;;;26.05;19.05;;;;;;;10.34;91.66;101706.00;6280612;22;20044;-79
2023/04/19 04:33:38;;;;;;;22.58;18.30;;;;;;;10.37;91.72;101706.56;6281593;22;20542;-78
2023/04/19 04:36:06;;;;;;;23.38;18.63;;;;;;;10.34;91.61;101706.81;6280001;22;20047;-78
2023/04/19 04:38:32;;;;;;;24.13;18.98;;;;;;;10.40;91.71;101708.09;6280480;22;20362;-79
2023/04/19 04:40:59;;;;;;;22.95;18.08;;;;;;;10.39;91.31;101698.59;6281497;22;20051;-79
2023/04/19 04:43:28;;;;;;;25.80;18.33;;;;;;;10.40;91.29;101700.25;6281785;22;20020;-81
2023/04/19 04:45:56;;;;;;;23.67;18.45;;;;;;;10.40;91.08;101700.25;6281923;22;20020;-81
2023/04/19 04:48:25;;;;;;;23.33;18.52;;;;;;;10.42;91.25;101695.69;6283262;22;20028;-78
2023/04/19 04:50:51;;;;;;;25.48;19.05;;;;;;;10.42;91.09;101703.53;6283615;22;20024;-79
2023/04/19 04:53:19;;;;;;;23.05;17.85;;;;;;;10.36;91.46;101697.06;6284293;22;20413;-80
2023/04/19 04:55:45;;;;;;;25.00;18.88;;;;;;;10.39;91.34;101709.06;6284556;22;20023;-81
2023/04/19 04:58:12;;;;;;;28.75;18.45;;;;;;;10.31;91.32;101701.84;6285543;22;20020;-80
2023/04/19 05:00:38;;;;;;;23.58;18.67;;;;;;;10.22;91.73;101692.97;6286787;22;20059;-80
2023/04/19 05:03:05;;;;;;;24.35;18.23;;;;;;;10.34;91.78;101706.81;6288100;22;20043;-78
2023/04/19 05:05:33;;;;;;;24.60;18.92;;;;;;;10.33;91.88;101704.31;6288271;22;20436;-80
2023/04/19 05:08:00;;;;;;;24.10;18.75;;;;;;;10.30;91.79;101708.03;6287465;22;20468;-80
2023/04/19 05:10:27;;;;;;;23.27;18.85;;;;;;;10.25;91.88;101697.94;6285520;22;20417;-77
2023/04/19 05:12:54;;;;;;;24.60;19.25;;;;;;;10.34;92.04;101711.22;6283891;22;20355;-77
2023/04/19 05:15:20;;;;;;;24.27;19.33;;;;;;;10.32;91.79;101707.91;6282358;22;20024;-78
2023/04/19 05:17:47;;;;;;;26.23;19.63;;;;;;;10.30;92.10;101703.63;6283663;22;20031;-78
2023/04/19 05:20:14;;;;;;;23.88;18.25;;;;;;;10.33;91.72;101704.31;6283894;22;20027;-79
2023/04/19 05:22:42;;;;;;;23.77;18.83;;;;;;;10.34;91.96;101698.13;6287787;22;20046;-79
2023/04/19 05:25:10;;;;;;;24.30;18.52;;;;;;;10.37;91.95;101696.09;6285713;22;20020;-80
2023/04/19 05:27:37;;;;;;;26.17;20.13;;;;;;;10.36;91.85;101698.84;6286853;22;20047;-82
2023/04/19 05:30:04;;;;;;;27.98;20.02;;;;;;;10.34;91.97;101704.19;6287782;22;20062;-81
2023/04/19 05:32:31;;;;;;;25.15;19.27;;;;;;;10.36;91.76;101701.47;6287266;22;20024;-81
2023/04/19 05:34:58;;;;;;;27.92;19.85;;;;;;;10.37;91.61;101696.09;6288374;22;20023;-80
2023/04/19 05:37:24;;;;;;;26.63;19.50;;;;;;;10.41;91.41;101696.63;6287693;22;20031;-80
2023/04/19 05:39:52;;;;;;;24.27;18.80;;;;;;;10.41;91.12;101700.09;6288304;22;20024;-80
2023/04/19 05:42:19;;;;;;;29.08;18.15;;;;;;;10.44;91.22;101691.16;6286760;22;20059;-80
2023/04/19 05:44:46;;;;;;;24.60;18.38;;;;;;;10.44;90.42;101680.69;6283845;22;20023;-79
2023/04/19 05:47:12;;;;;;;22.42;17.83;;;;;;;10.44;90.41;101691.16;6278472;22;20044;-78
2023/04/19 05:49:39;;;;;;;22.60;18.02;;;;;;;10.40;90.09;101698.44;6281186;22;20026;-78
2023/04/19 05:52:05;;;;;;;26.38;17.45;;;;;;;10.41;89.71;101688.78;6281794;22;20027;-79
2023/04/19 05:54:34;;;;;;;22.13;16.45;;;;;;;10.40;89.78;101680.09;6281225;22;20071;-77
2023/04/19 05:57:02;;;;;;;23.02;16.50;;;;;;;10.44;89.16;101688.53;6280806;22;20127;-79
2023/04/19 05:59:29;;;;;;;21.00;15.55;;;;;;;10.44;88.55;101691.16;6282723;22;20027;-79
2023/04/19 06:01:56;;;;;;;19.00;14.63;;;;;;;10.40;87.93;101690.56;6280830;22;20030;-79
2023/04/19 06:04:22;;;;;;;17.20;13.90;;;;;;;10.43;87.17;101689.50;6283490;22;20027;-79
2023/04/19 06:06:49;;;;;;;18.45;13.25;;;;;;;10.42;86.67;101695.69;6278654;22;20121;-79
2023/04/19 06:09:16;;;;;;;17.42;13.18;;;;;;;10.42;86.87;101690.44;6279266;22;20545;-77
2023/04/19 06:11:43;;;;;;;20.23;12.93;;;;;;;10.53;86.21;101688.59;6287278;22;20026;-80
2023/04/19 06:14:12;;;;;;;18.85;12.75;;;;;;;10.46;85.85;101687.44;6288518;22;20019;-80
2023/04/19 06:16:39;;;;;;;15.85;11.90;;;;;;;10.46;85.05;101689.22;6287630;22;20012;-80
2023/04/19 06:19:06;;;;;;;18.58;11.80;;;;;;;10.44;84.81;101691.16;6288589;22;20024;-80
2023/04/19 06:21:33;;;;;;;16.17;11.35;;;;;;;10.46;84.65;101678.75;6287393;22;20046;-81
2023/04/19 06:24:00;;;;;;;14.27;9.95;;;;;;;10.41;83.94;101680.94;6288311;22;20024;-80
2023/04/19 06:26:27;;;;;;;13.23;9.85;;;;;;;10.36;83.37;101681.34;6289502;22;20023;-81
2023/04/19 06:28:56;;;;;;;14.02;10.23;;;;;;;10.53;82.64;101679.91;6292588;22;20034;-82
2023/04/19 06:31:26;;;;;;;12.32;9.98;;;;;;;10.47;82.23;101678.63;6290576;22;20034;-82
2023/04/19 06:33:53;;;;;;;13.93;10.10;;;;;;;10.56;81.54;101672.63;6291978;22;20066;-80
2023/04/19 06:36:20;;;;;;;13.95;9.40;;;;;;;10.64;80.86;101678.03;6292175;22;20047;-81
2023/04/19 06:38:48;;;;;;;15.43;9.95;;;;;;;10.61;80.68;101687.94;6292931;22;20023;-81
2023/04/19 06:41:15;;;;;;;13.48;10.05;;;;;;;10.65;80.46;101676.25;6293568;22;20023;-82
2023/04/19 06:43:43;;;;;;;14.20;10.18;;;;;;;10.59;80.15;101674.97;6295268;22;20079;-82
2023/04/19 06:46:10;;;;;;;14.40;9.50;;;;;;;10.71;79.72;101678.34;6297838;22;20047;-79
2023/04/19 06:48:38;;;;;;;14.77;9.50;;;;;;;10.84;78.94;101665.88;6302844;22;20011;-79
2023/04/19 06:51:05;;;;;;;13.95;8.88;;;;;;;10.95;78.84;101676.22;6302790;22;20008;-79
2023/04/19 06:53:32;;;;;;;13.18;9.20;;;;;;;11.09;78.66;101679.44;6302656;22;20027;-79
2023/04/19 06:56:00;;;;;;;11.93;9.13;;;;;;;11.10;77.93;101681.94;6302530;22;20020;-80
2023/04/19 06:58:27;;;;;;;11.50;9.43;;;;;;;11.30;77.58;101672.34;6302761;22;20063;-79
2023/04/19 07:00:54;;;;;;;12.95;8.90;;;;;;;11.29;77.31;101670.69;6297677;22;20027;-81
2023/04/19 07:03:21;;;;;;;14.55;8.73;;;;;;;11.55;76.76;101669.19;6294008;22;20028;-80
2023/04/19 07:05:51;;;;;;;14.68;9.40;;;;;;;11.56;76.16;101668.22;6292987;22;20030;-80
2023/04/19 07:08:17;;;;;;;11.88;8.98;;;;;;;11.58;75.12;101668.06;6291533;22;20023;-80
2023/04/19 07:10:44;;;;;;;13.35;8.68;;;;;;;12.15;74.34;101666.41;6292415;22;20018;-81
2023/04/19 07:13:11;;;;;;;10.95;8.77;;;;;;;11.93;73.38;101650.00;6292192;22;20110;-79
2023/04/19 07:15:37;;;;;;;12.35;7.88;;;;;;;12.54;72.96;101661.88;6291303;22;20047;-79
2023/04/19 07:18:04;;;;;;;10.07;8.25;;;;;;;12.37;72.60;101649.50;6290184;22;20019;-80
2023/04/19 07:20:31;;;;;;;13.05;9.25;;;;;;;12.35;72.35;101651.44;6290214;22;20024;-80
2023/04/19 07:22:59;;;;;;;12.40;8.75;;;;;;;12.33;71.64;101648.13;6290143;22;20351;-79
2023/04/19 07:25:33;;;;;;;11.30;8.77;;;;;;;12.47;70.84;101640.63;6290368;22;20389;-80
2023/04/19 07:28:01;;;;;;;11.25;8.07;;;;;;;13.36;68.62;101647.91;6292124;22;20102;-80
2023/04/19 07:30:28;;;;;;;12.52;8.65;;;;;;;13.88;66.30;101631.28;6290568;22;20027;-80
2023/04/19 07:32:55;;;;;;;11.48;7.65;;;;;;;14.32;64.74;101635.66;6291794;22;20024;-80
2023/04/19 07:35:21;;;;;;;9.32;7.65;;;;;;;14.66;64.49;101638.34;6291620;22;20030;-79
2023/04/19 07:37:48;;;;;;;10.75;7.95;;;;;;;14.33;64.01;101632.06;6291879;22;20023;-80
2023/04/19 07:40:16;;;;;;;11.98;8.20;;;;;;;14.10;64.64;101637.03;6292313;22;20024;-80
2023/04/19 07:42:43;;;;;;;12.30;8.15;;;;;;;14.34;63.56;101631.06;6292754;22;20031;-80
2023/04/19 07:45:10;;;;;;;11.80;8.43;;;;;;;14.68;62.75;101631.94;6290176;22;20127;-79
2023/04/19 07:47:37;;;;;;;10.73;7.78;;;;;;;14.31;62.62;101628.75;6290482;22;20024;-80
2023/04/19 07:50:06;;;;;;;10.48;7.97;;;;;;;14.55;62.25;101628.94;6290129;22;20023;-80
2023/04/19 07:52:33;;;;;;;10.13;8.23;;;;;;;14.76;62.32;101618.78;6290727;22;20325;-80
2023/04/19 07:55:00;;;;;;;8.57;7.65;;;;;;;14.87;61.51;101628.22;6289669;22;20016;-80
2023/04/19 07:57:28;;;;;;;9.05;7.90;;;;;;;15.46;61.21;101637.75;6291397;22;20081;-80
2023/04/19 07:59:57;;;;;;;11.23;7.93;;;;;;;15.16;60.57;101618.06;6292076;22;20023;-79
2023/04/19 08:02:25;;;;;;;10.60;8.70;;;;;;;15.43;60.65;101618.78;6291064;22;20289;-79
2023/04/19 08:04:52;;;;;;;11.07;8.00;;;;;;;15.05;61.18;101622.84;6291431;22;20012;-80
2023/04/19 08:07:19;;;;;;;13.32;8.45;;;;;;;14.58;61.08;101618.06;6291820;22;20046;-79
2023/04/19 08:09:46;;;;;;;9.68;7.70;;;;;;;15.32;60.12;101613.81;6292109;22;20020;-80
2023/04/19 08:12:12;;;;;;;11.63;8.98;;;;;;;15.14;59.46;101611.31;6289799;22;20024;-79
2023/04/19 08:14:41;;;;;;;10.50;8.45;;;;;;;14.81;60.10;101627.03;6290637;22;20026;-80
2023/04/19 08:17:08;;;;;;;12.68;8.32;;;;;;;15.20;59.66;101605.38;6291014;22;20058;-80
2023/04/19 08:19:34;;;;;;;9.40;8.40;;;;;;;15.51;58.46;101603.78;6291650;22;20023;-80
2023/04/19 08:22:03;;;;;;;10.57;8.40;;;;;;;15.28;58.32;101619.41;6291452;22;20027;-79
2023/04/19 08:24:31;;;;;;;9.70;8.23;;;;;;;14.97;59.01;101615.75;6290590;22;20050;-79
2023/04/19 08:26:57;;;;;;;12.32;8.93;;;;;;;14.68;60.14;101610.84;6290711;22;20023;-81
2023/04/19 08:29:26;;;;;;;12.85;8.68;;;;;;;15.30;59.37;101611.34;6293471;22;20039;-80
2023/04/19 08:31:55;;;;;;;11.75;8.85;;;;;;;15.37;57.95;101606.25;6299406;22;20065;-79
2023/04/19 08:34:21;;;;;;;9.68;8.00;;;;;;;15.28;57.43;101592.22;6301896;22;20035;-80
2023/04/19 08:36:48;;;;;;;11.25;8.40;;;;;;;15.47;56.83;101576.09;6300628;22;20051;-79
2023/04/19 08:39:15;;;;;;;12.50;10.13;;;;;;;15.03;57.24;101598.47;6292867;22;20024;-79
2023/04/19 08:41:42;;;;;;;11.63;8.23;;;;;;;14.97;57.08;101599.09;6291755;22;20323;-79
2023/04/19 08:44:11;;;;;;;15.25;9.32;;;;;;;15.13;56.53;101572.75;6293133;22;20023;-79
2023/04/19 08:46:38;;;;;;;16.75;8.73;;;;;;;15.19;56.47;101588.75;6292307;22;20030;-79
2023/04/19 08:49:06;;;;;;;10.77;8.68;;;;;;;14.92;57.21;101587.22;6294054;22;20011;-79
2023/04/19 08:51:33;;;;;;;16.35;8.57;;;;;;;15.52;55.78;101581.69;6294693;22;20020;-79
2023/04/19 08:54:03;;;;;;;13.35;8.40;;;;;;;15.65;54.54;101567.19;6293112;22;20023;-79
2023/04/19 08:56:31;;;;;;;13.65;8.45;;;;;;;15.05;54.93;101560.41;6292584;22;20513;-83
2023/04/19 08:58:58;;;;;;;12.88;8.30;;;;;;;15.56;54.98;101575.13;6292959;22;20061;-80
2023/04/19 09:01:27;;;;;;;11.23;8.68;;;;;;;15.04;54.69;101573.75;6293117;22;20028;-80
2023/04/19 09:03:54;;;;;;;11.60;8.25;;;;;;;15.16;53.56;101553.97;6293342;22;20035;-81
2023/04/19 09:06:22;;;;;;;12.65;7.70;;;;;;;15.18;53.76;101559.91;6294629;22;20036;-79
2023/04/19 09:08:51;;;;;;;10.30;7.80;;;;;;;15.09;53.63;101567.00;6294563;22;20046;-80
2023/04/19 09:11:19;;;;;;;9.70;7.30;;;;;;;15.05;54.01;101568.31;6292196;22;20011;-81
2023/04/19 09:13:45;;;;;;;10.48;7.40;;;;;;;15.60;53.69;101568.50;6285771;22;20035;-79
2023/04/19 09:16:24;;;;;;;9.15;6.68;;;;;;;14.93;53.64;101566.97;6288122;22;20299;-80
2023/04/19 09:18:55;;;;;;;9.20;7.13;;;;;;;15.26;53.73;101549.38;6291466;22;20023;-79
2023/04/19 09:21:30;;;;;;;11.68;7.63;;;;;;;15.21;53.31;101551.69;6289289;22;20089;-78
2023/04/19 09:23:57;;;;;;;9.82;7.22;;;;;;;14.92;53.16;101565.31;6291437;22;20507;-81
2023/04/19 09:26:28;;;;;;;10.05;7.03;;;;;;;14.39;53.46;101568.25;6288495;22;20023;-79
2023/04/19 09:28:59;;;;;;;13.25;7.38;;;;;;;14.56;53.96;101570.00;6286773;22;20028;-80
2023/04/19 09:31:27;;;;;;;11.55;7.30;;;;;;;14.48;54.23;101569.97;6292987;22;20035;-80
2023/04/19 09:33:54;;;;;;;10.20;6.75;;;;;;;14.25;54.14;101573.09;6292177;22;20050;-80
2023/04/19 09:36:27;;;;;;;10.80;7.47;;;;;;;14.51;53.96;101567.00;6291553;22;20031;-80
2023/04/19 09:38:56;;;;;;;12.93;6.47;;;;;;;14.83;53.85;101561.84;6289787;22;20035;-79
2023/04/19 09:41:23;;;;;;;10.07;7.18;;;;;;;14.51;53.21;101538.03;6290533;22;20047;-80
2023/04/19 09:43:50;;;;;;;8.90;6.95;;;;;;;14.69;53.12;101561.63;6290929;22;20054;-80
2023/04/19 09:46:35;;;;;;;9.32;6.90;;;;;;;14.67;52.68;101555.69;6291924;22;20030;-81
2023/04/19 09:49:16;;;;;;;10.02;6.95;;;;;;;14.50;53.03;101555.66;6292343;22;20099;-79
2023/04/19 09:51:43;;;;;;;10.05;6.63;;;;;;;14.53;52.03;101549.25;6292185;22;20062;-79
2023/04/19 09:54:13;;;;;;;12.73;7.15;;;;;;;14.42;51.88;101539.81;6291126;22;20032;-81
2023/04/19 09:56:40;;;;;;;10.50;6.70;;;;;;;14.77;52.49;101544.03;6290629;22;20028;-80
2023/04/19 09:59:08;;;;;;;8.60;7.15;;;;;;;14.56;52.42;101530.50;6296653;22;20034;-80
2023/04/19 10:01:38;;;;;;;10.32;6.80;;;;;;;14.40;53.06;101540.94;6295892;22;20050;-82
2023/04/19 10:04:06;;;;;;;10.98;6.13;;;;;;;14.49;51.78;101542.66;6295092;22;20038;-80
2023/04/19 10:06:34;;;;;;;9.80;6.13;;;;;;;14.45;50.94;101528.97;6292670;22;20020;-80
2023/04/19 10:09:03;;;;;;;8.43;5.93;;;;;;;14.53;50.36;101533.44;6293555;22;20034;-80
2023/04/19 10:11:35;;;;;;;11.18;6.75;;;;;;;14.63;50.33;101534.13;6292508;22;20050;-81
2023/04/19 10:14:05;;;;;;;7.85;5.10;;;;;;;14.36;49.62;101521.97;6292234;22;20028;-80
2023/04/19 10:16:32;;;;;;;6.88;5.65;;;;;;;14.12;49.83;101530.63;6291843;22;20343;-79
2023/04/19 10:18:59;;;;;;;7.15;5.93;;;;;;;14.60;50.95;101531.81;6291976;22;20035;-80
2023/04/19 10:21:28;;;;;;;8.30;5.80;;;;;;;14.50;50.86;101524.06;6291907;22;20023;-79
2023/04/19 10:23:55;;;;;;;9.27;6.10;;;;;;;15.11;50.70;101519.41;6293154;22;20236;-80
2023/04/19 10:26:22;;;;;;;7.40;5.72;;;;;;;14.09;50.42;101517.78;6291065;22;20024;-80
2023/04/19 10:28:50;;;;;;;7.95;6.03;;;;;;;14.40;50.69;101512.78;6291979;22;20063;-80
2023/04/19 10:31:22;;;;;;;8.50;5.63;;;;;;;14.64;50.48;101514.72;6292069;22;20024;-79
2023/04/19 10:33:49;;;;;;;10.68;6.40;;;;;;;15.03;50.18;101503.56;6293173;22;20020;-81
2023/04/19 10:36:17;;;;;;;12.70;6.35;;;;;;;14.71;49.89;101493.78;6293013;22;20020;-80
2023/04/19 10:38:46;;;;;;;11.90;5.97;;;;;;;14.57;50.47;101525.06;6291507;22;20050;-79
2023/04/19 10:41:14;;;;;;;9.38;6.03;;;;;;;14.45;50.64;101520.25;6293069;22;20030;-80
2023/04/19 10:43:43;;;;;;;8.82;6.45;;;;;;;14.46;50.34;101500.81;6293606;22;20023;-81
2023/04/19 10:46:15;;;;;;;9.45;6.55;;;;;;;14.78;50.27;101503.53;6291539;22;20027;-80
2023/04/19 10:48:52;;;;;;;9.40;5.80;;;;;;;15.01;50.24;101497.63;6290835;22;20059;-80
2023/04/19 10:51:20;;;;;;;8.65;5.75;;;;;;;15.21;49.23;101491.03;6287683;22;20475;-80
2023/04/19 10:53:51;;;;;;;8.45;5.80;;;;;;;14.73;48.82;101487.38;6289748;22;20028;-81
2023/04/19 10:56:20;;;;;;;11.70;6.32;;;;;;;14.72;48.80;101491.00;6289341;22;20027;-80
2023/04/19 10:59:20;;;;;;;7.40;5.72;;;;;;;14.69;48.66;101491.31;6288201;22;20024;-80
2023/04/19 11:01:50;;;;;;;7.78;5.70;;;;;;;14.67;48.71;101488.03;6292257;22;20024;-81
2023/04/19 11:04:19;;;;;;;9.75;5.85;;;;;;;14.59;48.62;101488.03;6293150;22;20028;-79
2023/04/19 11:07:03;;;;;;;6.85;5.60;;;;;;;14.97;48.35;101477.88;6291369;22;20027;-80
2023/04/19 11:09:33;;;;;;;7.78;5.47;;;;;;;15.09;47.74;101482.66;6294127;22;20031;-79
2023/04/19 11:12:02;;;;;;;9.35;5.60;;;;;;;15.23;47.60;101478.50;6293158;22;20035;-79
2023/04/19 11:14:32;;;;;;;7.18;5.47;;;;;;;15.45;46.97;101471.75;6293699;22;20079;-80
2023/04/19 11:17:01;;;;;;;6.88;5.13;;;;;;;14.74;46.60;101467.94;6293407;22;20034;-79